sensor_id;sensor_type;location;lat;lon;timestamp;P1;durP1;ratioP1;P2;durP2;ratioP2
20611;SDS011;10465;42.686;23.364;2023-06-14T00:01:40;10.55;;;5.45;;
20611;SDS011;10465;42.686;23.364;2023-06-14T00:04:06;8.18;;;5.45;;
20611;SDS011;10465;42.686;23.364;2023-06-14T00:06:33;7.68;;;5.40;;
20611;SDS011;10465;42.686;23.364;2023-06-14T00:08:59;8.38;;;5.47;;
20611;SDS011;10465;42.686;23.364;2023-06-14T00:11:24;7.00;;;4.95;;
20611;SDS011;10465;42.686;23.364;2023-06-14T00:13:51;12.45;;;5.53;;
20611;SDS011;10465;42.686;23.364;2023-06-14T00:16:17;11.50;;;5.72;;
20611;SDS011;10465;42.686;23.364;2023-06-14T00:18:44;8.43;;;5.60;;
20611;SDS011;10465;42.686;23.364;2023-06-14T00:21:11;5.25;;;4.53;;
20611;SDS011;10465;42.686;23.364;2023-06-14T00:23:37;8.02;;;4.70;;
20611;SDS011;10465;42.686;23.364;2023-06-14T00:26:03;7.28;;;4.63;;
20611;SDS011;10465;42.686;23.364;2023-06-14T00:28:28;5.63;;;4.22;;
20611;SDS011;10465;42.686;23.364;2023-06-14T00:30:54;5.65;;;4.63;;
20611;SDS011;10465;42.686;23.364;2023-06-14T00:33:20;7.05;;;5.13;;
20611;SDS011;10465;42.686;23.364;2023-06-14T00:35:45;7.22;;;4.90;;
20611;SDS011;10465;42.686;23.364;2023-06-14T00:38:12;7.07;;;4.65;;
20611;SDS011;10465;42.686;23.364;2023-06-14T00:40:37;7.90;;;4.88;;
20611;SDS011;10465;42.686;23.364;2023-06-14T00:43:03;8.32;;;5.45;;
20611;SDS011;10465;42.686;23.364;2023-06-14T00:45:28;7.85;;;4.88;;
20611;SDS011;10465;42.686;23.364;2023-06-14T00:48:00;7.32;;;4.60;;
20611;SDS011;10465;42.686;23.364;2023-06-14T00:50:25;7.22;;;4.75;;
20611;SDS011;10465;42.686;23.364;2023-06-14T00:52:51;9.30;;;5.22;;
20611;SDS011;10465;42.686;23.364;2023-06-14T00:55:16;6.15;;;5.15;;
20611;SDS011;10465;42.686;23.364;2023-06-14T00:57:42;6.57;;;5.32;;
20611;SDS011;10465;42.686;23.364;2023-06-14T01:00:08;5.97;;;5.38;;
20611;SDS011;10465;42.686;23.364;2023-06-14T01:02:38;9.90;;;5.05;;
20611;SDS011;10465;42.686;23.364;2023-06-14T01:05:04;7.00;;;5.13;;
20611;SDS011;10465;42.686;23.364;2023-06-14T01:15:34;5.72;;;5.13;;
20611;SDS011;10465;42.686;23.364;2023-06-14T01:18:00;6.28;;;5.10;;
20611;SDS011;10465;42.686;23.364;2023-06-14T01:20:31;6.40;;;5.10;;
20611;SDS011;10465;42.686;23.364;2023-06-14T01:23:01;8.30;;;4.88;;
20611;SDS011;10465;42.686;23.364;2023-06-14T01:25:27;6.97;;;5.43;;
20611;SDS011;10465;42.686;23.364;2023-06-14T01:27:55;6.15;;;5.55;;
20611;SDS011;10465;42.686;23.364;2023-06-14T01:30:23;8.32;;;5.13;;
20611;SDS011;10465;42.686;23.364;2023-06-14T01:32:53;8.63;;;5.72;;
20611;SDS011;10465;42.686;23.364;2023-06-14T01:35:20;6.50;;;5.25;;
20611;SDS011;10465;42.686;23.364;2023-06-14T01:37:47;7.65;;;5.82;;
20611;SDS011;10465;42.686;23.364;2023-06-14T01:40:14;6.00;;;4.97;;
20611;SDS011;10465;42.686;23.364;2023-06-14T01:42:40;6.07;;;5.05;;
20611;SDS011;10465;42.686;23.364;2023-06-14T01:45:07;6.80;;;5.30;;
20611;SDS011;10465;42.686;23.364;2023-06-14T01:47:34;7.95;;;5.50;;
20611;SDS011;10465;42.686;23.364;2023-06-14T01:50:01;7.97;;;6.07;;
20611;SDS011;10465;42.686;23.364;2023-06-14T01:52:27;7.00;;;5.30;;
20611;SDS011;10465;42.686;23.364;2023-06-14T01:54:53;9.90;;;5.90;;
20611;SDS011;10465;42.686;23.364;2023-06-14T01:57:18;6.65;;;5.75;;
20611;SDS011;10465;42.686;23.364;2023-06-14T01:59:45;7.63;;;5.78;;
20611;SDS011;10465;42.686;23.364;2023-06-14T02:02:13;8.70;;;5.93;;
20611;SDS011;10465;42.686;23.364;2023-06-14T02:04:39;7.40;;;5.05;;
20611;SDS011;10465;42.686;23.364;2023-06-14T02:07:04;8.77;;;5.75;;
20611;SDS011;10465;42.686;23.364;2023-06-14T02:09:30;6.75;;;5.97;;
20611;SDS011;10465;42.686;23.364;2023-06-14T02:11:55;7.43;;;5.55;;
20611;SDS011;10465;42.686;23.364;2023-06-14T02:14:21;10.70;;;6.05;;
20611;SDS011;10465;42.686;23.364;2023-06-14T02:16:47;6.47;;;5.70;;
20611;SDS011;10465;42.686;23.364;2023-06-14T02:19:16;7.30;;;6.53;;
20611;SDS011;10465;42.686;23.364;2023-06-14T02:21:42;6.82;;;5.72;;
20611;SDS011;10465;42.686;23.364;2023-06-14T02:24:07;8.05;;;5.65;;
20611;SDS011;10465;42.686;23.364;2023-06-14T02:26:33;6.82;;;5.82;;
20611;SDS011;10465;42.686;23.364;2023-06-14T02:28:59;8.63;;;6.20;;
20611;SDS011;10465;42.686;23.364;2023-06-14T02:31:25;8.13;;;6.22;;
20611;SDS011;10465;42.686;23.364;2023-06-14T02:33:52;7.72;;;6.18;;
20611;SDS011;10465;42.686;23.364;2023-06-14T02:36:17;8.95;;;6.50;;
20611;SDS011;10465;42.686;23.364;2023-06-14T02:38:43;7.30;;;5.97;;
20611;SDS011;10465;42.686;23.364;2023-06-14T02:41:08;7.80;;;6.38;;
20611;SDS011;10465;42.686;23.364;2023-06-14T02:43:33;9.98;;;6.45;;
20611;SDS011;10465;42.686;23.364;2023-06-14T02:45:59;10.63;;;6.47;;
20611;SDS011;10465;42.686;23.364;2023-06-14T02:48:25;8.85;;;6.32;;
20611;SDS011;10465;42.686;23.364;2023-06-14T02:50:52;6.93;;;6.22;;
20611;SDS011;10465;42.686;23.364;2023-06-14T02:53:17;7.75;;;5.82;;
20611;SDS011;10465;42.686;23.364;2023-06-14T02:55:44;8.50;;;6.65;;
20611;SDS011;10465;42.686;23.364;2023-06-14T02:58:09;11.00;;;5.93;;
20611;SDS011;10465;42.686;23.364;2023-06-14T03:00:35;7.82;;;6.65;;
20611;SDS011;10465;42.686;23.364;2023-06-14T03:03:01;8.05;;;6.65;;
20611;SDS011;10465;42.686;23.364;2023-06-14T03:05:27;8.02;;;6.90;;
20611;SDS011;10465;42.686;23.364;2023-06-14T03:07:53;9.15;;;6.70;;
20611;SDS011;10465;42.686;23.364;2023-06-14T03:10:19;10.93;;;6.47;;
20611;SDS011;10465;42.686;23.364;2023-06-14T03:12:44;11.18;;;6.35;;
20611;SDS011;10465;42.686;23.364;2023-06-14T03:15:10;11.13;;;7.05;;
20611;SDS011;10465;42.686;23.364;2023-06-14T03:17:38;9.95;;;7.13;;
20611;SDS011;10465;42.686;23.364;2023-06-14T03:20:04;7.72;;;6.35;;
20611;SDS011;10465;42.686;23.364;2023-06-14T03:22:30;10.20;;;6.13;;
20611;SDS011;10465;42.686;23.364;2023-06-14T03:24:57;9.68;;;6.50;;
20611;SDS011;10465;42.686;23.364;2023-06-14T03:27:24;8.40;;;7.00;;
20611;SDS011;10465;42.686;23.364;2023-06-14T03:29:50;12.32;;;7.38;;
20611;SDS011;10465;42.686;23.364;2023-06-14T03:32:16;8.43;;;6.57;;
20611;SDS011;10465;42.686;23.364;2023-06-14T03:37:24;8.40;;;6.47;;
20611;SDS011;10465;42.686;23.364;2023-06-14T03:39:49;7.50;;;6.40;;
20611;SDS011;10465;42.686;23.364;2023-06-14T03:42:15;7.88;;;6.28;;
20611;SDS011;10465;42.686;23.364;2023-06-14T03:44:40;10.05;;;6.57;;
20611;SDS011;10465;42.686;23.364;2023-06-14T03:47:06;10.93;;;6.35;;
20611;SDS011;10465;42.686;23.364;2023-06-14T03:49:31;9.50;;;6.13;;
20611;SDS011;10465;42.686;23.364;2023-06-14T03:51:57;8.32;;;5.95;;
20611;SDS011;10465;42.686;23.364;2023-06-14T03:54:22;8.32;;;6.53;;
20611;SDS011;10465;42.686;23.364;2023-06-14T03:56:47;8.00;;;6.32;;
20611;SDS011;10465;42.686;23.364;2023-06-14T03:59:13;10.98;;;7.10;;
20611;SDS011;10465;42.686;23.364;2023-06-14T04:01:38;9.50;;;6.20;;
20611;SDS011;10465;42.686;23.364;2023-06-14T04:04:10;10.68;;;6.93;;
20611;SDS011;10465;42.686;23.364;2023-06-14T04:06:36;8.80;;;6.95;;
20611;SDS011;10465;42.686;23.364;2023-06-14T04:09:02;11.48;;;6.43;;
20611;SDS011;10465;42.686;23.364;2023-06-14T04:11:27;8.65;;;6.50;;
20611;SDS011;10465;42.686;23.364;2023-06-14T04:13:53;9.55;;;6.70;;
20611;SDS011;10465;42.686;23.364;2023-06-14T04:16:22;10.18;;;6.82;;
20611;SDS011;10465;42.686;23.364;2023-06-14T04:18:48;11.15;;;6.95;;
20611;SDS011;10465;42.686;23.364;2023-06-14T04:21:16;8.73;;;6.43;;
20611;SDS011;10465;42.686;23.364;2023-06-14T04:23:42;10.32;;;7.40;;
20611;SDS011;10465;42.686;23.364;2023-06-14T04:26:09;11.63;;;7.03;;
20611;SDS011;10465;42.686;23.364;2023-06-14T04:28:35;9.27;;;6.75;;
20611;SDS011;10465;42.686;23.364;2023-06-14T04:31:05;10.00;;;7.60;;
20611;SDS011;10465;42.686;23.364;2023-06-14T04:33:34;10.02;;;7.32;;
20611;SDS011;10465;42.686;23.364;2023-06-14T04:36:08;9.48;;;7.40;;
20611;SDS011;10465;42.686;23.364;2023-06-14T04:38:38;9.27;;;7.28;;
20611;SDS011;10465;42.686;23.364;2023-06-14T04:41:04;9.48;;;7.53;;
20611;SDS011;10465;42.686;23.364;2023-06-14T04:43:29;9.93;;;7.25;;
20611;SDS011;10465;42.686;23.364;2023-06-14T04:45:56;14.52;;;7.70;;
20611;SDS011;10465;42.686;23.364;2023-06-14T04:48:22;19.27;;;11.93;;
20611;SDS011;10465;42.686;23.364;2023-06-14T04:50:48;10.40;;;8.95;;
20611;SDS011;10465;42.686;23.364;2023-06-14T04:53:18;13.63;;;9.23;;
20611;SDS011;10465;42.686;23.364;2023-06-14T04:55:47;10.45;;;8.40;;
20611;SDS011;10465;42.686;23.364;2023-06-14T04:58:13;10.00;;;8.00;;
20611;SDS011;10465;42.686;23.364;2023-06-14T05:00:39;14.25;;;10.50;;
20611;SDS011;10465;42.686;23.364;2023-06-14T05:03:06;14.60;;;9.85;;
20611;SDS011;10465;42.686;23.364;2023-06-14T05:05:33;11.57;;;9.18;;
20611;SDS011;10465;42.686;23.364;2023-06-14T05:07:59;12.43;;;8.95;;
20611;SDS011;10465;42.686;23.364;2023-06-14T05:10:24;14.82;;;9.30;;
20611;SDS011;10465;42.686;23.364;2023-06-14T05:12:50;12.25;;;8.95;;
20611;SDS011;10465;42.686;23.364;2023-06-14T05:15:15;14.63;;;9.38;;
20611;SDS011;10465;42.686;23.364;2023-06-14T05:17:41;11.82;;;8.90;;
20611;SDS011;10465;42.686;23.364;2023-06-14T05:20:07;17.10;;;13.20;;
20611;SDS011;10465;42.686;23.364;2023-06-14T05:22:35;27.63;;;19.65;;
20611;SDS011;10465;42.686;23.364;2023-06-14T05:25:01;17.08;;;13.25;;
20611;SDS011;10465;42.686;23.364;2023-06-14T05:27:26;17.13;;;11.75;;
20611;SDS011;10465;42.686;23.364;2023-06-14T05:29:52;22.00;;;10.63;;
20611;SDS011;10465;42.686;23.364;2023-06-14T05:32:20;16.30;;;10.70;;
20611;SDS011;10465;42.686;23.364;2023-06-14T05:34:46;18.80;;;10.52;;
20611;SDS011;10465;42.686;23.364;2023-06-14T05:37:11;16.77;;;11.27;;
20611;SDS011;10465;42.686;23.364;2023-06-14T05:39:38;16.00;;;10.95;;
20611;SDS011;10465;42.686;23.364;2023-06-14T05:42:03;13.50;;;10.43;;
20611;SDS011;10465;42.686;23.364;2023-06-14T05:44:29;12.30;;;9.82;;
20611;SDS011;10465;42.686;23.364;2023-06-14T05:46:54;13.77;;;10.50;;
20611;SDS011;10465;42.686;23.364;2023-06-14T05:49:20;15.48;;;10.20;;
20611;SDS011;10465;42.686;23.364;2023-06-14T05:51:45;16.08;;;11.23;;
20611;SDS011;10465;42.686;23.364;2023-06-14T05:54:11;23.95;;;14.50;;
20611;SDS011;10465;42.686;23.364;2023-06-14T05:56:36;21.52;;;15.13;;
20611;SDS011;10465;42.686;23.364;2023-06-14T05:59:02;17.58;;;12.60;;
20611;SDS011;10465;42.686;23.364;2023-06-14T06:01:27;17.92;;;11.55;;
20611;SDS011;10465;42.686;23.364;2023-06-14T06:03:52;14.25;;;11.32;;
20611;SDS011;10465;42.686;23.364;2023-06-14T06:06:18;16.10;;;12.57;;
20611;SDS011;10465;42.686;23.364;2023-06-14T06:08:44;18.00;;;14.23;;
20611;SDS011;10465;42.686;23.364;2023-06-14T06:11:10;20.08;;;14.50;;
20611;SDS011;10465;42.686;23.364;2023-06-14T06:13:35;18.25;;;14.15;;
20611;SDS011;10465;42.686;23.364;2023-06-14T06:16:02;23.52;;;14.02;;
20611;SDS011;10465;42.686;23.364;2023-06-14T06:18:28;18.55;;;12.15;;
20611;SDS011;10465;42.686;23.364;2023-06-14T06:20:53;22.67;;;13.93;;
20611;SDS011;10465;42.686;23.364;2023-06-14T06:23:19;18.23;;;13.32;;
20611;SDS011;10465;42.686;23.364;2023-06-14T06:25:44;18.90;;;13.57;;
20611;SDS011;10465;42.686;23.364;2023-06-14T06:28:10;20.00;;;12.60;;
20611;SDS011;10465;42.686;23.364;2023-06-14T06:30:36;15.85;;;11.73;;
20611;SDS011;10465;42.686;23.364;2023-06-14T06:33:01;19.08;;;12.43;;
20611;SDS011;10465;42.686;23.364;2023-06-14T06:35:28;18.48;;;12.10;;
20611;SDS011;10465;42.686;23.364;2023-06-14T06:37:55;23.05;;;13.85;;
20611;SDS011;10465;42.686;23.364;2023-06-14T06:40:20;17.40;;;13.38;;
20611;SDS011;10465;42.686;23.364;2023-06-14T06:42:46;21.50;;;14.45;;
20611;SDS011;10465;42.686;23.364;2023-06-14T06:45:12;21.25;;;15.00;;
20611;SDS011;10465;42.686;23.364;2023-06-14T06:47:37;18.02;;;14.15;;
20611;SDS011;10465;42.686;23.364;2023-06-14T06:50:05;22.20;;;12.90;;
20611;SDS011;10465;42.686;23.364;2023-06-14T06:52:34;18.80;;;13.88;;
20611;SDS011;10465;42.686;23.364;2023-06-14T06:55:00;18.85;;;14.05;;
20611;SDS011;10465;42.686;23.364;2023-06-14T06:57:25;21.52;;;16.95;;
20611;SDS011;10465;42.686;23.364;2023-06-14T06:59:51;23.33;;;15.57;;
20611;SDS011;10465;42.686;23.364;2023-06-14T07:02:19;22.15;;;14.45;;
20611;SDS011;10465;42.686;23.364;2023-06-14T07:04:48;20.80;;;14.48;;
20611;SDS011;10465;42.686;23.364;2023-06-14T07:07:13;22.17;;;15.55;;
20611;SDS011;10465;42.686;23.364;2023-06-14T07:09:39;20.23;;;15.48;;
20611;SDS011;10465;42.686;23.364;2023-06-14T07:12:07;23.35;;;15.00;;
20611;SDS011;10465;42.686;23.364;2023-06-14T07:14:33;28.85;;;16.85;;
20611;SDS011;10465;42.686;23.364;2023-06-14T07:16:58;35.92;;;16.02;;
20611;SDS011;10465;42.686;23.364;2023-06-14T07:19:24;35.65;;;17.75;;
20611;SDS011;10465;42.686;23.364;2023-06-14T07:21:50;31.33;;;17.52;;
20611;SDS011;10465;42.686;23.364;2023-06-14T07:24:15;23.75;;;15.85;;
20611;SDS011;10465;42.686;23.364;2023-06-14T07:26:41;22.58;;;15.68;;
20611;SDS011;10465;42.686;23.364;2023-06-14T07:29:06;23.30;;;16.85;;
20611;SDS011;10465;42.686;23.364;2023-06-14T07:31:32;22.00;;;15.82;;
20611;SDS011;10465;42.686;23.364;2023-06-14T07:33:57;22.05;;;15.73;;
20611;SDS011;10465;42.686;23.364;2023-06-14T07:36:23;21.17;;;15.43;;
20611;SDS011;10465;42.686;23.364;2023-06-14T07:38:48;19.50;;;15.43;;
20611;SDS011;10465;42.686;23.364;2023-06-14T07:41:14;21.17;;;15.60;;
20611;SDS011;10465;42.686;23.364;2023-06-14T07:43:39;20.60;;;15.90;;
20611;SDS011;10465;42.686;23.364;2023-06-14T07:46:04;20.95;;;15.75;;
20611;SDS011;10465;42.686;23.364;2023-06-14T07:48:30;21.35;;;15.15;;
20611;SDS011;10465;42.686;23.364;2023-06-14T07:50:56;19.23;;;15.18;;
20611;SDS011;10465;42.686;23.364;2023-06-14T07:53:21;18.20;;;14.60;;
20611;SDS011;10465;42.686;23.364;2023-06-14T07:55:47;15.52;;;13.00;;
20611;SDS011;10465;42.686;23.364;2023-06-14T07:58:13;18.73;;;13.82;;
20611;SDS011;10465;42.686;23.364;2023-06-14T08:00:39;20.23;;;14.00;;
20611;SDS011;10465;42.686;23.364;2023-06-14T08:03:04;15.95;;;13.10;;
20611;SDS011;10465;42.686;23.364;2023-06-14T08:05:30;19.05;;;13.98;;
20611;SDS011;10465;42.686;23.364;2023-06-14T08:07:55;22.35;;;15.02;;
20611;SDS011;10465;42.686;23.364;2023-06-14T08:10:21;17.92;;;13.85;;
20611;SDS011;10465;42.686;23.364;2023-06-14T08:12:47;20.42;;;15.65;;
20611;SDS011;10465;42.686;23.364;2023-06-14T08:15:15;19.25;;;13.68;;
20611;SDS011;10465;42.686;23.364;2023-06-14T08:17:42;18.35;;;13.10;;
20611;SDS011;10465;42.686;23.364;2023-06-14T08:20:08;15.32;;;12.75;;
20611;SDS011;10465;42.686;23.364;2023-06-14T08:22:35;16.05;;;13.05;;
20611;SDS011;10465;42.686;23.364;2023-06-14T08:25:01;15.88;;;11.95;;
20611;SDS011;10465;42.686;23.364;2023-06-14T08:27:27;16.60;;;11.57;;
20611;SDS011;10465;42.686;23.364;2023-06-14T08:29:52;16.63;;;12.40;;
20611;SDS011;10465;42.686;23.364;2023-06-14T08:32:18;14.30;;;11.70;;
20611;SDS011;10465;42.686;23.364;2023-06-14T08:34:44;15.75;;;10.73;;
20611;SDS011;10465;42.686;23.364;2023-06-14T08:37:11;15.45;;;11.18;;
20611;SDS011;10465;42.686;23.364;2023-06-14T08:39:37;13.07;;;11.15;;
20611;SDS011;10465;42.686;23.364;2023-06-14T08:42:02;15.93;;;11.65;;
20611;SDS011;10465;42.686;23.364;2023-06-14T08:44:29;14.25;;;10.85;;
20611;SDS011;10465;42.686;23.364;2023-06-14T08:46:59;13.63;;;9.73;;
20611;SDS011;10465;42.686;23.364;2023-06-14T08:49:25;12.50;;;10.45;;
20611;SDS011;10465;42.686;23.364;2023-06-14T08:51:58;13.32;;;11.18;;
20611;SDS011;10465;42.686;23.364;2023-06-14T08:54:27;13.35;;;10.27;;
20611;SDS011;10465;42.686;23.364;2023-06-14T08:56:55;13.88;;;10.07;;
20611;SDS011;10465;42.686;23.364;2023-06-14T08:59:27;11.32;;;9.55;;
20611;SDS011;10465;42.686;23.364;2023-06-14T09:01:53;12.57;;;10.48;;
20611;SDS011;10465;42.686;23.364;2023-06-14T09:04:22;14.15;;;11.13;;
20611;SDS011;10465;42.686;23.364;2023-06-14T09:06:49;16.27;;;11.10;;
20611;SDS011;10465;42.686;23.364;2023-06-14T09:09:18;16.65;;;12.13;;
20611;SDS011;10465;42.686;23.364;2023-06-14T09:11:45;14.57;;;11.95;;
20611;SDS011;10465;42.686;23.364;2023-06-14T09:14:11;14.50;;;10.52;;
20611;SDS011;10465;42.686;23.364;2023-06-14T09:16:37;12.10;;;9.73;;
20611;SDS011;10465;42.686;23.364;2023-06-14T09:19:02;13.15;;;10.20;;
20611;SDS011;10465;42.686;23.364;2023-06-14T09:21:27;11.98;;;9.90;;
20611;SDS011;10465;42.686;23.364;2023-06-14T09:23:58;15.43;;;9.70;;
20611;SDS011;10465;42.686;23.364;2023-06-14T09:26:25;13.07;;;9.85;;
20611;SDS011;10465;42.686;23.364;2023-06-14T09:28:52;13.50;;;10.05;;
20611;SDS011;10465;42.686;23.364;2023-06-14T09:31:19;13.45;;;10.15;;
20611;SDS011;10465;42.686;23.364;2023-06-14T09:33:46;11.48;;;9.68;;
20611;SDS011;10465;42.686;23.364;2023-06-14T09:36:22;12.63;;;9.35;;
20611;SDS011;10465;42.686;23.364;2023-06-14T09:38:53;15.45;;;10.25;;
20611;SDS011;10465;42.686;23.364;2023-06-14T09:41:36;13.23;;;10.70;;
20611;SDS011;10465;42.686;23.364;2023-06-14T09:44:04;12.88;;;9.68;;
20611;SDS011;10465;42.686;23.364;2023-06-14T09:46:31;11.93;;;9.82;;
20611;SDS011;10465;42.686;23.364;2023-06-14T09:48:58;10.55;;;9.40;;
20611;SDS011;10465;42.686;23.364;2023-06-14T09:51:24;13.05;;;9.43;;
20611;SDS011;10465;42.686;23.364;2023-06-14T09:53:50;14.48;;;9.80;;
20611;SDS011;10465;42.686;23.364;2023-06-14T09:56:36;11.18;;;9.23;;
20611;SDS011;10465;42.686;23.364;2023-06-14T09:59:04;11.52;;;9.60;;
20611;SDS011;10465;42.686;23.364;2023-06-14T10:01:31;12.80;;;9.82;;
20611;SDS011;10465;42.686;23.364;2023-06-14T10:04:04;13.05;;;10.35;;
20611;SDS011;10465;42.686;23.364;2023-06-14T10:06:30;13.32;;;10.65;;
20611;SDS011;10465;42.686;23.364;2023-06-14T10:08:58;11.68;;;9.43;;
20611;SDS011;10465;42.686;23.364;2023-06-14T10:11:27;10.40;;;9.05;;
20611;SDS011;10465;42.686;23.364;2023-06-14T10:13:53;11.35;;;9.07;;
20611;SDS011;10465;42.686;23.364;2023-06-14T10:16:23;10.98;;;9.02;;
20611;SDS011;10465;42.686;23.364;2023-06-14T10:24:29;12.20;;;9.07;;
20611;SDS011;10465;42.686;23.364;2023-06-14T10:26:58;15.00;;;8.90;;
20611;SDS011;10465;42.686;23.364;2023-06-14T10:29:27;10.75;;;8.98;;
20611;SDS011;10465;42.686;23.364;2023-06-14T10:31:57;10.98;;;9.45;;
20611;SDS011;10465;42.686;23.364;2023-06-14T10:34:25;10.32;;;8.85;;
20611;SDS011;10465;42.686;23.364;2023-06-14T10:37:05;12.60;;;9.10;;
20611;SDS011;10465;42.686;23.364;2023-06-14T10:39:42;11.35;;;8.95;;
20611;SDS011;10465;42.686;23.364;2023-06-14T10:42:12;11.25;;;8.63;;
20611;SDS011;10465;42.686;23.364;2023-06-14T10:44:42;12.20;;;9.30;;
20611;SDS011;10465;42.686;23.364;2023-06-14T10:49:50;14.18;;;9.23;;
20611;SDS011;10465;42.686;23.364;2023-06-14T10:52:21;12.90;;;9.25;;
20611;SDS011;10465;42.686;23.364;2023-06-14T10:54:55;11.38;;;8.63;;
20611;SDS011;10465;42.686;23.364;2023-06-14T10:57:23;8.90;;;8.00;;
20611;SDS011;10465;42.686;23.364;2023-06-14T10:59:49;9.85;;;8.57;;
20611;SDS011;10465;42.686;23.364;2023-06-14T11:05:05;10.18;;;9.18;;
20611;SDS011;10465;42.686;23.364;2023-06-14T11:10:31;12.73;;;8.38;;
20611;SDS011;10465;42.686;23.364;2023-06-14T11:13:02;11.68;;;8.43;;
20611;SDS011;10465;42.686;23.364;2023-06-14T11:15:29;10.00;;;8.77;;
20611;SDS011;10465;42.686;23.364;2023-06-14T11:17:55;9.55;;;8.55;;
20611;SDS011;10465;42.686;23.364;2023-06-14T11:20:24;11.02;;;8.63;;
20611;SDS011;10465;42.686;23.364;2023-06-14T11:22:51;9.60;;;8.05;;
20611;SDS011;10465;42.686;23.364;2023-06-14T11:25:17;11.25;;;8.20;;
20611;SDS011;10465;42.686;23.364;2023-06-14T11:27:43;9.70;;;8.52;;
20611;SDS011;10465;42.686;23.364;2023-06-14T11:30:10;11.73;;;8.68;;
20611;SDS011;10465;42.686;23.364;2023-06-14T11:32:36;9.25;;;8.10;;
20611;SDS011;10465;42.686;23.364;2023-06-14T11:35:03;11.20;;;9.65;;
20611;SDS011;10465;42.686;23.364;2023-06-14T11:37:30;9.65;;;8.60;;
20611;SDS011;10465;42.686;23.364;2023-06-14T11:39:56;10.05;;;7.60;;
20611;SDS011;10465;42.686;23.364;2023-06-14T11:42:22;9.80;;;8.00;;
20611;SDS011;10465;42.686;23.364;2023-06-14T11:44:49;8.13;;;7.30;;
20611;SDS011;10465;42.686;23.364;2023-06-14T11:47:15;11.68;;;7.68;;
20611;SDS011;10465;42.686;23.364;2023-06-14T11:49:41;10.00;;;8.30;;
20611;SDS011;10465;42.686;23.364;2023-06-14T11:52:07;10.23;;;8.32;;
20611;SDS011;10465;42.686;23.364;2023-06-14T11:54:32;8.98;;;7.63;;
20611;SDS011;10465;42.686;23.364;2023-06-14T11:56:58;8.93;;;7.85;;
20611;SDS011;10465;42.686;23.364;2023-06-14T11:59:24;8.80;;;7.68;;
20611;SDS011;10465;42.686;23.364;2023-06-14T12:01:50;8.52;;;7.72;;
20611;SDS011;10465;42.686;23.364;2023-06-14T12:04:28;10.13;;;7.80;;
20611;SDS011;10465;42.686;23.364;2023-06-14T12:06:54;7.97;;;6.70;;
20611;SDS011;10465;42.686;23.364;2023-06-14T12:09:20;8.35;;;6.90;;
20611;SDS011;10465;42.686;23.364;2023-06-14T12:11:48;9.85;;;7.50;;
20611;SDS011;10465;42.686;23.364;2023-06-14T12:14:15;9.85;;;7.22;;
20611;SDS011;10465;42.686;23.364;2023-06-14T12:16:41;9.10;;;7.18;;
20611;SDS011;10465;42.686;23.364;2023-06-14T12:19:08;8.00;;;6.90;;
20611;SDS011;10465;42.686;23.364;2023-06-14T12:21:39;7.00;;;6.30;;
20611;SDS011;10465;42.686;23.364;2023-06-14T12:24:08;7.25;;;6.20;;
20611;SDS011;10465;42.686;23.364;2023-06-14T12:26:40;7.20;;;6.18;;
20611;SDS011;10465;42.686;23.364;2023-06-14T12:29:06;7.85;;;6.68;;
20611;SDS011;10465;42.686;23.364;2023-06-14T12:31:32;8.13;;;6.22;;
20611;SDS011;10465;42.686;23.364;2023-06-14T12:33:58;7.55;;;6.00;;
20611;SDS011;10465;42.686;23.364;2023-06-14T12:36:24;5.97;;;5.38;;
20611;SDS011;10465;42.686;23.364;2023-06-14T12:38:50;6.53;;;5.85;;
20611;SDS011;10465;42.686;23.364;2023-06-14T12:41:18;9.75;;;7.50;;
20611;SDS011;10465;42.686;23.364;2023-06-14T12:43:46;7.00;;;6.30;;
20611;SDS011;10465;42.686;23.364;2023-06-14T12:46:12;10.27;;;7.03;;
20611;SDS011;10465;42.686;23.364;2023-06-14T12:48:37;7.35;;;6.50;;
20611;SDS011;10465;42.686;23.364;2023-06-14T12:51:03;6.43;;;5.82;;
20611;SDS011;10465;42.686;23.364;2023-06-14T12:53:28;7.22;;;5.60;;
20611;SDS011;10465;42.686;23.364;2023-06-14T12:55:53;7.25;;;5.65;;
20611;SDS011;10465;42.686;23.364;2023-06-14T12:58:19;6.82;;;5.32;;
20611;SDS011;10465;42.686;23.364;2023-06-14T13:00:45;6.88;;;5.70;;
20611;SDS011;10465;42.686;23.364;2023-06-14T13:03:11;6.30;;;5.70;;
20611;SDS011;10465;42.686;23.364;2023-06-14T13:05:36;7.20;;;5.85;;
20611;SDS011;10465;42.686;23.364;2023-06-14T13:08:02;8.80;;;5.90;;
20611;SDS011;10465;42.686;23.364;2023-06-14T13:10:28;6.40;;;5.50;;
20611;SDS011;10465;42.686;23.364;2023-06-14T13:12:53;6.20;;;5.28;;
20611;SDS011;10465;42.686;23.364;2023-06-14T13:15:19;7.72;;;5.65;;
20611;SDS011;10465;42.686;23.364;2023-06-14T13:17:45;7.75;;;6.07;;
20611;SDS011;10465;42.686;23.364;2023-06-14T13:20:13;10.07;;;7.72;;
20611;SDS011;10465;42.686;23.364;2023-06-14T13:22:40;10.43;;;7.43;;
20611;SDS011;10465;42.686;23.364;2023-06-14T13:25:06;9.35;;;7.15;;
20611;SDS011;10465;42.686;23.364;2023-06-14T13:27:31;8.15;;;6.88;;
20611;SDS011;10465;42.686;23.364;2023-06-14T13:29:57;10.57;;;7.68;;
20611;SDS011;10465;42.686;23.364;2023-06-14T13:32:23;8.43;;;7.47;;
20611;SDS011;10465;42.686;23.364;2023-06-14T13:34:49;9.43;;;7.55;;
20611;SDS011;10465;42.686;23.364;2023-06-14T13:37:15;10.13;;;7.63;;
20611;SDS011;10465;42.686;23.364;2023-06-14T13:39:41;8.80;;;7.65;;
20611;SDS011;10465;42.686;23.364;2023-06-14T13:42:07;12.40;;;8.50;;
20611;SDS011;10465;42.686;23.364;2023-06-14T13:44:32;10.25;;;8.60;;
20611;SDS011;10465;42.686;23.364;2023-06-14T13:46:58;8.98;;;8.02;;
20611;SDS011;10465;42.686;23.364;2023-06-14T13:49:23;8.45;;;7.55;;
20611;SDS011;10465;42.686;23.364;2023-06-14T13:51:49;8.85;;;7.47;;
20611;SDS011;10465;42.686;23.364;2023-06-14T13:54:14;9.00;;;7.53;;
20611;SDS011;10465;42.686;23.364;2023-06-14T13:56:40;8.75;;;7.63;;
20611;SDS011;10465;42.686;23.364;2023-06-14T13:59:06;9.15;;;7.72;;
20611;SDS011;10465;42.686;23.364;2023-06-14T14:01:31;8.23;;;7.30;;
20611;SDS011;10465;42.686;23.364;2023-06-14T14:03:57;9.45;;;7.47;;
20611;SDS011;10465;42.686;23.364;2023-06-14T14:06:23;9.68;;;7.22;;
20611;SDS011;10465;42.686;23.364;2023-06-14T14:08:49;8.93;;;7.40;;
20611;SDS011;10465;42.686;23.364;2023-06-14T14:11:14;9.35;;;7.18;;
20611;SDS011;10465;42.686;23.364;2023-06-14T14:13:41;10.45;;;7.10;;
20611;SDS011;10465;42.686;23.364;2023-06-14T14:16:07;8.05;;;6.70;;
20611;SDS011;10465;42.686;23.364;2023-06-14T14:18:33;8.50;;;7.13;;
20611;SDS011;10465;42.686;23.364;2023-06-14T14:20:58;9.43;;;6.63;;
20611;SDS011;10465;42.686;23.364;2023-06-14T14:23:25;9.18;;;6.70;;
20611;SDS011;10465;42.686;23.364;2023-06-14T14:25:51;8.63;;;6.53;;
20611;SDS011;10465;42.686;23.364;2023-06-14T14:28:16;9.50;;;6.53;;
20611;SDS011;10465;42.686;23.364;2023-06-14T14:30:44;7.07;;;5.88;;
20611;SDS011;10465;42.686;23.364;2023-06-14T14:33:10;11.45;;;6.85;;
20611;SDS011;10465;42.686;23.364;2023-06-14T14:35:40;9.25;;;6.45;;
20611;SDS011;10465;42.686;23.364;2023-06-14T14:38:11;8.40;;;6.25;;
20611;SDS011;10465;42.686;23.364;2023-06-14T14:40:42;8.75;;;6.47;;
20611;SDS011;10465;42.686;23.364;2023-06-14T14:43:09;7.10;;;6.35;;
20611;SDS011;10465;42.686;23.364;2023-06-14T14:45:34;7.97;;;6.00;;